Time;durP1;ratioP1;P1;durP2;ratioP2;P2;SDS_P1;SDS_P2;PMS_P1;PMS_P2;Temp;Humidity;BMP_temperature;BMP_pressure;BME280_temperature;BME280_humidity;BME280_pressure;Samples;Min_cycle;Max_cycle;Signal;HPM_P1;HPM_P2
2024/02/03 00:02:00;;;;;;;2.22;1.67;;;;;;;;;;4914017;29;20048;-68
2024/02/03 00:04:26;;;;;;;3.05;1.45;;;;;;;;;;4914328;29;20044;-68
2024/02/03 00:06:52;;;;;;;1.50;1.38;;;;;;;;;;4914042;29;20044;-68
2024/02/03 00:09:18;;;;;;;2.10;1.60;;;;;;;;;;4914765;29;20600;-67
2024/02/03 00:11:48;;;;;;;1.60;1.30;;;;;;;;;;4914275;29;20503;-68
2024/02/03 00:14:14;;;;;;;1.83;1.48;;;;;;;;;;4914049;29;20032;-68
2024/02/03 00:16:41;;;;;;;2.85;1.77;;;;;;;;;;4912514;29;20134;-69
2024/02/03 00:19:08;;;;;;;1.92;1.00;;;;;;;;;;4912556;29;20044;-68
2024/02/03 00:21:33;;;;;;;2.97;1.33;;;;;;;;;;4913947;29;20079;-69
2024/02/03 00:23:59;;;;;;;2.78;2.05;;;;;;;;;;4913767;29;20079;-68
2024/02/03 00:26:25;;;;;;;1.50;1.35;;;;;;;;;;4912470;29;20059;-68
2024/02/03 00:28:54;;;;;;;1.65;1.55;;;;;;;;;;4914009;29;20040;-68
2024/02/03 00:31:19;;;;;;;1.50;1.40;;;;;;;;;;4917999;29;20477;-68
2024/02/03 00:33:46;;;;;;;1.65;1.30;;;;;;;;;;4932945;29;20063;-69
2024/02/03 00:36:24;;;;;;;3.28;1.60;;;;;;;;;;4932390;29;20038;-68
2024/02/03 00:38:51;;;;;;;1.45;1.42;;;;;;;;;;4932880;29;20474;-67
2024/02/03 00:41:17;;;;;;;2.60;1.27;;;;;;;;;;4933450;29;20035;-67
2024/02/03 00:43:42;;;;;;;4.25;1.50;;;;;;;;;;4932610;29;20078;-68
2024/02/03 00:46:11;;;;;;;2.00;1.90;;;;;;;;;;4932093;29;20067;-68
2024/02/03 00:48:37;;;;;;;2.00;1.45;;;;;;;;;;4931320;29;20063;-69
2024/02/03 00:51:09;;;;;;;2.38;1.42;;;;;;;;;;4932514;29;20062;-68
2024/02/03 00:53:38;;;;;;;6.07;1.52;;;;;;;;;;4933404;29;20036;-68
2024/02/03 00:56:04;;;;;;;1.92;1.80;;;;;;;;;;4931189;29;20058;-69
2024/02/03 00:58:30;;;;;;;4.20;1.50;;;;;;;;;;4932453;29;20427;-67
2024/02/03 01:00:56;;;;;;;3.33;1.40;;;;;;;;;;4931571;29;20043;-69
2024/02/03 01:03:24;;;;;;;2.83;1.20;;;;;;;;;;4931274;29;20106;-66
2024/02/03 01:05:50;;;;;;;1.27;1.25;;;;;;;;;;4930786;29;20515;-67
2024/02/03 01:08:16;;;;;;;1.70;1.60;;;;;;;;;;4932021;29;20042;-68
2024/02/03 01:10:42;;;;;;;1.70;1.60;;;;;;;;;;4932284;29;20039;-67
2024/02/03 01:13:08;;;;;;;1.42;0.95;;;;;;;;;;4932075;29;20059;-67
2024/02/03 01:15:34;;;;;;;2.15;1.70;;;;;;;;;;4930303;29;20541;-67
2024/02/03 01:18:00;;;;;;;1.63;1.17;;;;;;;;;;4931688;29;20036;-69
2024/02/03 01:20:26;;;;;;;2.13;1.55;;;;;;;;;;4932801;29;20035;-68
2024/02/03 01:22:52;;;;;;;2.88;2.05;;;;;;;;;;4932531;29;20049;-67
2024/02/03 01:25:18;;;;;;;2.47;1.58;;;;;;;;;;4932566;29;20048;-67
2024/02/03 01:27:44;;;;;;;1.60;1.25;;;;;;;;;;4932585;29;20126;-68
2024/02/03 01:30:10;;;;;;;2.20;1.50;;;;;;;;;;4931695;29;20036;-67
2024/02/03 01:32:36;;;;;;;3.20;1.80;;;;;;;;;;4931963;29;20047;-68
2024/02/03 01:35:02;;;;;;;5.60;1.40;;;;;;;;;;4931654;29;20498;-68
2024/02/03 01:37:28;;;;;;;1.73;1.25;;;;;;;;;;4931597;29;20036;-67
2024/02/03 01:39:54;;;;;;;1.38;1.38;;;;;;;;;;4936239;29;20060;-67
2024/02/03 01:42:21;;;;;;;3.50;1.27;;;;;;;;;;4937270;29;20044;-67
2024/02/03 01:44:47;;;;;;;1.15;1.13;;;;;;;;;;4940085;29;20160;-68
2024/02/03 01:47:12;;;;;;;1.15;1.15;;;;;;;;;;4937455;29;20039;-68
2024/02/03 01:49:39;;;;;;;4.93;1.27;;;;;;;;;;4932631;29;20490;-69
2024/02/03 01:52:04;;;;;;;3.42;1.90;;;;;;;;;;4932068;29;20128;-67
2024/02/03 01:54:30;;;;;;;4.43;1.80;;;;;;;;;;4931786;29;20395;-67
2024/02/03 01:56:56;;;;;;;1.08;1.08;;;;;;;;;;4930722;29;20035;-67
2024/02/03 01:59:24;;;;;;;1.50;1.40;;;;;;;;;;4931152;29;20036;-67
2024/02/03 02:01:50;;;;;;;2.55;1.52;;;;;;;;;;4931302;29;20039;-68
2024/02/03 02:04:16;;;;;;;1.92;1.77;;;;;;;;;;4929773;29;20082;-68
2024/02/03 02:06:42;;;;;;;1.75;1.45;;;;;;;;;;4930113;29;20574;-68
2024/02/03 02:09:08;;;;;;;3.35;1.70;;;;;;;;;;4931306;29;20043;-68
2024/02/03 02:11:36;;;;;;;1.60;1.50;;;;;;;;;;4931185;29;20406;-68
2024/02/03 02:14:02;;;;;;;1.60;1.55;;;;;;;;;;4931046;29;20042;-67
2024/02/03 02:16:29;;;;;;;4.45;1.52;;;;;;;;;;4929799;29;20055;-68
2024/02/03 02:18:55;;;;;;;1.30;1.20;;;;;;;;;;4930157;29;20085;-67
2024/02/03 02:21:21;;;;;;;1.42;1.42;;;;;;;;;;4929728;29;20565;-67
2024/02/03 02:23:46;;;;;;;1.20;1.20;;;;;;;;;;4931517;29;20610;-68
2024/02/03 02:26:12;;;;;;;1.17;1.17;;;;;;;;;;4913606;29;20225;-68
2024/02/03 02:28:39;;;;;;;2.15;1.50;;;;;;;;;;4914674;29;20031;-68
2024/02/03 02:31:05;;;;;;;1.95;1.60;;;;;;;;;;4931224;29;20050;-68
2024/02/03 02:33:31;;;;;;;2.60;1.17;;;;;;;;;;4930050;29;20032;-68
2024/02/03 02:35:57;;;;;;;1.75;1.70;;;;;;;;;;4914033;29;20048;-68
2024/02/03 02:38:23;;;;;;;1.75;1.42;;;;;;;;;;4929711;29;20130;-68
2024/02/03 02:40:49;;;;;;;1.35;1.15;;;;;;;;;;4931513;29;20039;-67
2024/02/03 02:43:15;;;;;;;1.08;0.93;;;;;;;;;;4932061;29;20039;-67
2024/02/03 02:45:41;;;;;;;1.50;1.40;;;;;;;;;;4930345;29;20538;-67
2024/02/03 02:48:07;;;;;;;4.50;1.73;;;;;;;;;;4931781;29;20515;-67
2024/02/03 02:50:33;;;;;;;3.10;2.42;;;;;;;;;;4929488;29;20040;-67
2024/02/03 02:52:59;;;;;;;2.45;1.95;;;;;;;;;;4929637;29;20485;-67
2024/02/03 02:55:24;;;;;;;2.90;1.42;;;;;;;;;;4930629;29;20047;-67
2024/02/03 02:57:50;;;;;;;1.55;1.45;;;;;;;;;;4930945;29;20146;-68
2024/02/03 03:00:17;;;;;;;6.35;1.70;;;;;;;;;;4930616;29;20035;-68
2024/02/03 03:02:43;;;;;;;1.80;1.67;;;;;;;;;;4930681;29;20039;-67
2024/02/03 03:05:11;;;;;;;1.40;1.30;;;;;;;;;;4930470;29;20051;-68
2024/02/03 03:07:38;;;;;;;2.08;1.52;;;;;;;;;;4931266;29;20126;-68
2024/02/03 03:10:04;;;;;;;3.55;1.98;;;;;;;;;;4934406;29;20047;-68
2024/02/03 03:12:30;;;;;;;1.20;1.20;;;;;;;;;;4934878;29;20036;-67
2024/02/03 03:14:56;;;;;;;1.77;1.67;;;;;;;;;;4934555;29;20949;-68
2024/02/03 03:17:22;;;;;;;1.23;1.10;;;;;;;;;;4934536;29;20039;-67
2024/02/03 03:19:48;;;;;;;2.10;1.42;;;;;;;;;;4934585;29;20036;-67
2024/02/03 03:22:16;;;;;;;2.08;1.65;;;;;;;;;;4933701;29;20067;-67
2024/02/03 03:24:42;;;;;;;4.03;1.70;;;;;;;;;;4933951;29;20086;-66
2024/02/03 03:27:08;;;;;;;1.13;1.13;;;;;;;;;;4933592;29;20488;-67
2024/02/03 03:29:33;;;;;;;4.88;1.63;;;;;;;;;;4934121;29;20043;-66
2024/02/03 03:31:59;;;;;;;2.58;1.50;;;;;;;;;;4934197;29;20584;-67
2024/02/03 03:34:26;;;;;;;11.85;1.63;;;;;;;;;;4935131;29;20047;-68
2024/02/03 03:36:51;;;;;;;2.20;1.98;;;;;;;;;;4934162;29;20034;-67
2024/02/03 03:39:17;;;;;;;2.20;2.00;;;;;;;;;;4932410;29;20040;-67
2024/02/03 03:41:43;;;;;;;0.80;0.80;;;;;;;;;;4933820;29;20075;-68
2024/02/03 03:44:09;;;;;;;2.15;1.70;;;;;;;;;;4933545;29;20053;-67
2024/02/03 03:46:35;;;;;;;2.00;1.67;;;;;;;;;;4932450;29;20043;-67
2024/02/03 03:49:00;;;;;;;1.67;1.58;;;;;;;;;;4933921;29;20727;-67
2024/02/03 03:51:26;;;;;;;1.48;1.48;;;;;;;;;;4933562;29;20435;-67
2024/02/03 03:53:52;;;;;;;3.65;2.28;;;;;;;;;;4933705;29;20119;-66
2024/02/03 03:56:18;;;;;;;3.30;1.80;;;;;;;;;;4933303;29;20039;-67
2024/02/03 03:58:43;;;;;;;2.05;1.83;;;;;;;;;;4933632;29;20036;-68
2024/02/03 04:01:10;;;;;;;2.75;1.98;;;;;;;;;;4916356;29;20036;-67
2024/02/03 04:03:36;;;;;;;2.00;1.90;;;;;;;;;;4933641;29;20545;-67
2024/02/03 04:06:01;;;;;;;2.13;1.60;;;;;;;;;;4932170;29;20127;-66
2024/02/03 04:08:27;;;;;;;2.35;1.45;;;;;;;;;;4933590;29;20067;-68
2024/02/03 04:10:53;;;;;;;1.75;1.65;;;;;;;;;;4932027;29;20166;-67
2024/02/03 04:13:19;;;;;;;5.00;1.63;;;;;;;;;;4933106;29;20032;-66
2024/02/03 04:15:45;;;;;;;1.98;1.88;;;;;;;;;;4933432;29;20518;-67
2024/02/03 04:18:11;;;;;;;2.50;2.30;;;;;;;;;;4933148;29;20054;-67
2024/02/03 04:20:37;;;;;;;2.40;1.67;;;;;;;;;;4931403;29;20542;-69
2024/02/03 04:23:03;;;;;;;1.90;1.80;;;;;;;;;;4931803;29;20138;-68
2024/02/03 04:25:29;;;;;;;2.33;1.85;;;;;;;;;;4933066;29;20059;-67
2024/02/03 04:27:55;;;;;;;5.78;1.92;;;;;;;;;;4932028;29;20455;-67
2024/02/03 04:30:21;;;;;;;1.67;1.40;;;;;;;;;;4933360;29;20062;-68
2024/02/03 04:32:46;;;;;;;2.97;1.83;;;;;;;;;;4933313;29;20036;-67
2024/02/03 04:35:12;;;;;;;4.47;2.05;;;;;;;;;;4934156;29;20103;-68
2024/02/03 04:37:38;;;;;;;1.60;1.50;;;;;;;;;;4947801;29;20056;-68
2024/02/03 04:40:05;;;;;;;3.10;1.90;;;;;;;;;;4938634;29;20036;-67
2024/02/03 04:42:31;;;;;;;3.00;1.58;;;;;;;;;;4933443;29;20700;-67
2024/02/03 04:44:57;;;;;;;3.42;2.08;;;;;;;;;;4918891;29;20115;-69
2024/02/03 04:47:23;;;;;;;5.80;2.85;;;;;;;;;;4933078;29;20047;-69
2024/02/03 04:49:49;;;;;;;2.13;1.73;;;;;;;;;;4915655;29;20032;-68
2024/02/03 04:52:15;;;;;;;1.30;1.30;;;;;;;;;;4915250;29;20032;-69
2024/02/03 04:54:41;;;;;;;2.25;1.67;;;;;;;;;;4926638;29;20420;-71
2024/02/03 04:57:07;;;;;;;4.60;1.85;;;;;;;;;;4922811;29;20379;-69
2024/02/03 04:59:33;;;;;;;1.75;1.55;;;;;;;;;;4925814;29;20485;-69
2024/02/03 05:01:58;;;;;;;2.08;1.88;;;;;;;;;;4927003;29;20036;-69
2024/02/03 05:04:24;;;;;;;9.88;3.00;;;;;;;;;;4923925;29;20028;-68
2024/02/03 05:06:50;;;;;;;2.15;1.80;;;;;;;;;;4932526;29;20650;-72
2024/02/03 05:09:16;;;;;;;5.22;2.50;;;;;;;;;;4931814;29;20040;-71
2024/02/03 05:11:41;;;;;;;3.05;2.40;;;;;;;;;;4930728;29;20047;-71
2024/02/03 05:14:07;;;;;;;1.35;1.35;;;;;;;;;;4931914;29;20454;-71
2024/02/03 05:16:33;;;;;;;3.33;1.98;;;;;;;;;;4931384;29;20138;-71
2024/02/03 05:19:01;;;;;;;2.38;2.25;;;;;;;;;;4932010;29;20498;-71
2024/02/03 05:21:27;;;;;;;5.70;1.80;;;;;;;;;;4931743;29;20035;-72
2024/02/03 05:23:52;;;;;;;1.83;1.70;;;;;;;;;;4909293;29;20028;-71
2024/02/03 05:26:18;;;;;;;5.90;2.40;;;;;;;;;;4925106;29;20502;-71
2024/02/03 05:28:45;;;;;;;5.72;2.70;;;;;;;;;;4931081;29;20414;-72
2024/02/03 05:31:10;;;;;;;1.73;1.73;;;;;;;;;;4924430;29;20044;-71
2024/02/03 05:33:36;;;;;;;2.70;2.50;;;;;;;;;;4923033;29;20422;-72
2024/02/03 05:36:02;;;;;;;2.70;2.25;;;;;;;;;;4905257;29;20118;-71
2024/02/03 05:38:28;;;;;;;3.17;2.92;;;;;;;;;;4926900;29;20071;-72
2024/02/03 05:40:54;;;;;;;4.15;2.30;;;;;;;;;;4946676;29;20067;-72
2024/02/03 05:43:20;;;;;;;3.40;2.42;;;;;;;;;;4934302;29;20502;-73
2024/02/03 05:45:45;;;;;;;3.38;2.30;;;;;;;;;;4926763;29;20391;-75
2024/02/03 05:48:11;;;;;;;2.72;2.53;;;;;;;;;;4925609;29;20119;-74
2024/02/03 05:50:38;;;;;;;2.63;2.45;;;;;;;;;;4932488;29;20040;-72
2024/02/03 05:53:04;;;;;;;3.15;2.83;;;;;;;;;;4928525;29;20487;-71
2024/02/03 05:55:30;;;;;;;8.50;3.03;;;;;;;;;;4930118;29;20035;-72
2024/02/03 05:57:56;;;;;;;2.45;2.20;;;;;;;;;;4925004;29;20042;-72
2024/02/03 06:00:22;;;;;;;2.65;2.42;;;;;;;;;;4928681;29;20473;-71
2024/02/03 06:02:48;;;;;;;3.60;3.30;;;;;;;;;;4929567;29;20134;-72
2024/02/03 06:05:15;;;;;;;4.32;3.67;;;;;;;;;;4931101;29;20035;-73
2024/02/03 06:07:42;;;;;;;5.32;3.90;;;;;;;;;;4931614;29;20067;-73
2024/02/03 06:10:08;;;;;;;2.90;2.45;;;;;;;;;;4926409;29;20032;-73
2024/02/03 06:12:34;;;;;;;2.67;2.58;;;;;;;;;;4928214;29;20063;-72
2024/02/03 06:14:59;;;;;;;3.60;3.28;;;;;;;;;;4923860;29;20032;-73
2024/02/03 06:17:25;;;;;;;4.25;3.10;;;;;;;;;;4928923;29;20056;-72
2024/02/03 06:19:53;;;;;;;6.80;3.63;;;;;;;;;;4923533;29;20028;-71
2024/02/03 06:22:19;;;;;;;4.25;2.80;;;;;;;;;;4910447;29;20039;-72
2024/02/03 06:24:45;;;;;;;2.20;2.10;;;;;;;;;;4922436;29;20351;-73
2024/02/03 06:27:11;;;;;;;2.38;2.17;;;;;;;;;;4922529;29;20066;-72
2024/02/03 06:29:37;;;;;;;6.47;3.35;;;;;;;;;;4924621;29;20495;-72
2024/02/03 06:32:04;;;;;;;4.65;3.55;;;;;;;;;;4926143;29;20055;-72
2024/02/03 06:34:30;;;;;;;3.85;3.45;;;;;;;;;;4923421;29;20091;-72
2024/02/03 06:36:56;;;;;;;2.78;2.58;;;;;;;;;;4915851;29;20044;-71
2024/02/03 06:39:22;;;;;;;4.45;2.50;;;;;;;;;;4922095;29;20859;-72
2024/02/03 06:41:48;;;;;;;3.30;3.03;;;;;;;;;;4923608;29;20086;-72
2024/02/03 06:44:13;;;;;;;3.70;2.88;;;;;;;;;;4928492;29;20607;-71
2024/02/03 06:46:39;;;;;;;5.97;2.65;;;;;;;;;;4923203;29;20048;-70
2024/02/03 06:49:05;;;;;;;1.77;1.67;;;;;;;;;;4928429;29;20518;-73
2024/02/03 06:51:31;;;;;;;4.43;2.65;;;;;;;;;;4921748;29;20468;-73
2024/02/03 06:54:00;;;;;;;2.45;2.25;;;;;;;;;;4926119;29;20036;-72
2024/02/03 06:56:25;;;;;;;2.35;2.20;;;;;;;;;;4916290;29;20043;-71
2024/02/03 06:58:51;;;;;;;7.07;2.75;;;;;;;;;;4932369;29;20040;-72
2024/02/03 07:01:17;;;;;;;2.38;1.98;;;;;;;;;;4932671;29;20062;-71
2024/02/03 07:03:43;;;;;;;2.03;1.92;;;;;;;;;;4929357;29;20098;-71
2024/02/03 07:06:09;;;;;;;1.55;1.52;;;;;;;;;;4929878;29;20075;-73
2024/02/03 07:08:34;;;;;;;3.97;2.40;;;;;;;;;;4934800;29;20525;-72
2024/02/03 07:11:00;;;;;;;1.67;1.58;;;;;;;;;;4933670;29;20055;-71
2024/02/03 07:13:27;;;;;;;2.78;2.53;;;;;;;;;;4944186;29;20041;-73
2024/02/03 07:15:53;;;;;;;2.40;2.13;;;;;;;;;;4919581;29;20665;-73
2024/02/03 07:18:19;;;;;;;4.47;2.20;;;;;;;;;;4935003;29;20032;-72
2024/02/03 07:20:45;;;;;;;2.65;2.50;;;;;;;;;;4933892;29;20050;-72
2024/02/03 07:23:11;;;;;;;2.17;2.08;;;;;;;;;;4934644;29;20027;-73
2024/02/03 07:25:37;;;;;;;2.72;2.05;;;;;;;;;;4933474;29;20516;-72
2024/02/03 07:28:03;;;;;;;2.10;1.98;;;;;;;;;;4936879;29;20131;-74
2024/02/03 07:30:29;;;;;;;5.63;2.00;;;;;;;;;;4946094;29;20067;-73
2024/02/03 07:32:55;;;;;;;2.88;2.70;;;;;;;;;;4926175;29;20032;-73
2024/02/03 07:35:21;;;;;;;2.17;2.05;;;;;;;;;;4931403;29;20880;-72
2024/02/03 07:37:47;;;;;;;7.43;2.42;;;;;;;;;;4932121;29;20499;-72
2024/02/03 07:40:13;;;;;;;2.35;2.15;;;;;;;;;;4924712;29;20641;-72
2024/02/03 07:42:40;;;;;;;2.72;1.77;;;;;;;;;;4923496;29;20032;-74
2024/02/03 07:45:06;;;;;;;2.20;2.10;;;;;;;;;;4923236;29;20035;-74
2024/02/03 07:47:33;;;;;;;2.10;1.90;;;;;;;;;;4922885;29;20775;-72
2024/02/03 07:49:59;;;;;;;3.13;2.13;;;;;;;;;;4925462;29;20024;-71
2024/02/03 07:52:25;;;;;;;2.63;2.20;;;;;;;;;;4924581;29;20411;-72
2024/02/03 07:54:51;;;;;;;1.67;1.52;;;;;;;;;;4926057;29;20038;-71
2024/02/03 07:57:17;;;;;;;2.63;2.25;;;;;;;;;;4924083;29;20494;-71
2024/02/03 07:59:43;;;;;;;2.72;2.10;;;;;;;;;;4929224;29;20023;-71
2024/02/03 08:02:08;;;;;;;1.98;1.73;;;;;;;;;;4923827;29;20447;-71
2024/02/03 08:04:35;;;;;;;2.63;1.88;;;;;;;;;;4936274;29;20074;-70
2024/02/03 08:07:01;;;;;;;8.93;2.72;;;;;;;;;;4936195;29;20050;-70
2024/02/03 08:09:27;;;;;;;3.22;2.00;;;;;;;;;;4934849;29;20027;-70
2024/02/03 08:11:52;;;;;;;2.25;2.05;;;;;;;;;;4934435;29;20050;-71
2024/02/03 08:14:20;;;;;;;2.38;2.17;;;;;;;;;;4914462;29;20032;-71
2024/02/03 08:16:46;;;;;;;3.58;2.47;;;;;;;;;;4924050;29;20059;-71
2024/02/03 08:19:12;;;;;;;5.97;2.47;;;;;;;;;;4929553;29;20526;-70
2024/02/03 08:21:38;;;;;;;4.05;2.50;;;;;;;;;;4929809;29;20036;-72
2024/02/03 08:24:04;;;;;;;5.50;2.80;;;;;;;;;;4922736;29;20036;-70
2024/02/03 08:26:30;;;;;;;5.78;2.35;;;;;;;;;;4928903;29;20043;-71
2024/02/03 08:28:56;;;;;;;5.82;2.85;;;;;;;;;;4932096;29;20482;-72
2024/02/03 08:31:22;;;;;;;2.58;2.22;;;;;;;;;;4933739;29;20035;-71
2024/02/03 08:33:48;;;;;;;4.82;2.60;;;;;;;;;;4932713;29;20043;-71
2024/02/03 08:36:13;;;;;;;2.15;2.05;;;;;;;;;;4933623;29;20071;-70
2024/02/03 08:38:39;;;;;;;4.57;2.63;;;;;;;;;;4933468;29;20506;-72
2024/02/03 08:41:05;;;;;;;4.43;2.60;;;;;;;;;;4933616;29;20043;-70
2024/02/03 08:43:31;;;;;;;4.22;2.70;;;;;;;;;;4921517;29;20032;-72
2024/02/03 08:45:57;;;;;;;1.80;1.70;;;;;;;;;;4951993;28;20123;-72
2024/02/03 08:48:23;;;;;;;1.80;1.70;;;;;;;;;;4929294;29;20665;-71
2024/02/03 08:50:49;;;;;;;3.95;2.33;;;;;;;;;;4925534;29;20074;-70
2024/02/03 08:53:14;;;;;;;1.60;1.60;;;;;;;;;;4922804;29;20035;-71
2024/02/03 08:55:40;;;;;;;3.40;1.95;;;;;;;;;;4930724;29;20692;-69
2024/02/03 08:58:06;;;;;;;2.63;2.35;;;;;;;;;;4932086;29;20536;-70
2024/02/03 09:00:32;;;;;;;5.30;2.60;;;;;;;;;;4914548;29;20131;-70
2024/02/03 09:02:58;;;;;;;13.63;2.83;;;;;;;;;;4911093;29;20038;-70
2024/02/03 09:05:23;;;;;;;4.97;2.47;;;;;;;;;;4926999;29;20055;-69
2024/02/03 09:07:51;;;;;;;2.42;2.03;;;;;;;;;;4924106;29;20487;-72
2024/02/03 09:10:17;;;;;;;3.55;2.78;;;;;;;;;;4921501;29;20040;-71
2024/02/03 09:12:44;;;;;;;1.73;1.63;;;;;;;;;;4916146;29;20090;-71
2024/02/03 09:15:10;;;;;;;3.75;2.70;;;;;;;;;;4926737;29;20063;-71
2024/02/03 09:17:36;;;;;;;2.45;1.90;;;;;;;;;;4927600;29;20036;-71
2024/02/03 09:20:03;;;;;;;2.30;2.10;;;;;;;;;;4922916;29;20123;-72
2024/02/03 09:22:30;;;;;;;5.38;2.90;;;;;;;;;;4924449;29;20165;-72
2024/02/03 09:24:56;;;;;;;5.93;3.10;;;;;;;;;;4931725;29;20039;-71
2024/02/03 09:27:22;;;;;;;2.70;2.45;;;;;;;;;;4930166;29;20051;-71
2024/02/03 09:29:48;;;;;;;2.65;2.20;;;;;;;;;;4940848;29;20036;-72
2024/02/03 09:32:14;;;;;;;3.95;3.10;;;;;;;;;;4927576;29;20414;-72
2024/02/03 09:34:46;;;;;;;7.13;3.40;;;;;;;;;;4924965;29;20766;-71
2024/02/03 09:37:12;;;;;;;2.42;2.08;;;;;;;;;;4913744;29;20044;-71
2024/02/03 09:39:40;;;;;;;2.90;2.70;;;;;;;;;;4916771;29;20028;-71
2024/02/03 09:42:06;;;;;;;2.60;2.05;;;;;;;;;;4926245;29;20609;-71
2024/02/03 09:44:32;;;;;;;4.95;3.20;;;;;;;;;;4930747;29;20032;-71
2024/02/03 09:46:57;;;;;;;5.82;2.88;;;;;;;;;;4929280;29;20150;-72
2024/02/03 09:49:23;;;;;;;5.25;3.25;;;;;;;;;;4931262;29;20032;-72
2024/02/03 09:51:49;;;;;;;4.18;3.28;;;;;;;;;;4930823;29;20066;-71
2024/02/03 09:54:16;;;;;;;4.28;3.63;;;;;;;;;;4934755;29;20413;-71
2024/02/03 09:56:43;;;;;;;5.80;3.72;;;;;;;;;;4949826;28;20094;-71
2024/02/03 09:59:09;;;;;;;5.43;4.20;;;;;;;;;;4932345;29;20082;-70
2024/02/03 10:01:35;;;;;;;5.82;3.97;;;;;;;;;;4926298;29;20047;-72
2024/02/03 10:04:01;;;;;;;11.27;4.90;;;;;;;;;;4929384;29;20039;-71
2024/02/03 10:06:27;;;;;;;4.20;3.63;;;;;;;;;;4930431;29;20055;-71
2024/02/03 10:08:56;;;;;;;8.70;3.97;;;;;;;;;;4928557;29;20032;-73
2024/02/03 10:11:22;;;;;;;4.05;3.50;;;;;;;;;;4929216;29;20035;-72
2024/02/03 10:14:03;;;;;;;4.57;3.22;;;;;;;;;;4924470;29;20032;-71
2024/02/03 10:16:30;;;;;;;5.32;3.03;;;;;;;;;;4925418;29;20062;-71
2024/02/03 10:18:55;;;;;;;5.55;3.55;;;;;;;;;;4912397;29;20068;-71
2024/02/03 10:21:23;;;;;;;5.45;2.65;;;;;;;;;;4931848;29;20040;-70
2024/02/03 10:23:51;;;;;;;3.55;3.17;;;;;;;;;;4933290;29;20130;-71
2024/02/03 10:26:16;;;;;;;4.97;3.70;;;;;;;;;;4917167;29;20403;-71
2024/02/03 10:28:44;;;;;;;4.10;3.58;;;;;;;;;;4948203;29;20043;-72
2024/02/03 10:31:11;;;;;;;4.82;3.20;;;;;;;;;;4938754;29;20094;-72
2024/02/03 10:33:37;;;;;;;4.55;3.63;;;;;;;;;;4933632;29;20059;-71
2024/02/03 10:36:03;;;;;;;6.57;2.97;;;;;;;;;;4933161;29;20039;-71
2024/02/03 10:38:29;;;;;;;3.08;2.53;;;;;;;;;;4934298;29;20023;-71
2024/02/03 10:40:55;;;;;;;5.30;3.00;;;;;;;;;;4930165;29;20031;-71
2024/02/03 10:43:21;;;;;;;4.90;3.75;;;;;;;;;;4927053;29;20036;-71
2024/02/03 10:45:48;;;;;;;4.80;2.85;;;;;;;;;;4931735;29;20143;-72
2024/02/03 10:48:17;;;;;;;3.55;3.22;;;;;;;;;;4932365;29;20047;-72
2024/02/03 10:50:43;;;;;;;7.18;3.65;;;;;;;;;;4931183;29;20031;-72
2024/02/03 10:53:13;;;;;;;3.65;3.20;;;;;;;;;;4915424;29;20043;-72
2024/02/03 10:55:39;;;;;;;4.13;3.28;;;;;;;;;;4907931;29;20187;-72
2024/02/03 10:58:05;;;;;;;5.00;3.45;;;;;;;;;;4930889;29;20058;-72
2024/02/03 11:00:31;;;;;;;3.03;2.60;;;;;;;;;;4934044;29;20502;-72
2024/02/03 11:02:58;;;;;;;8.80;4.65;;;;;;;;;;4929935;29;20031;-72
2024/02/03 11:05:27;;;;;;;8.88;2.25;;;;;;;;;;4930140;29;20046;-72
2024/02/03 11:07:53;;;;;;;3.28;2.92;;;;;;;;;;4930970;28;20601;-73
2024/02/03 11:10:25;;;;;;;4.63;3.17;;;;;;;;;;4914419;29;20028;-73
2024/02/03 11:12:51;;;;;;;6.70;3.60;;;;;;;;;;4931030;29;20130;-72
2024/02/03 11:15:18;;;;;;;5.50;3.35;;;;;;;;;;4929325;29;20522;-72
2024/02/03 11:17:44;;;;;;;4.63;3.13;;;;;;;;;;4913791;29;20039;-71
2024/02/03 11:20:19;;;;;;;1.80;1.75;;;;;;;;;;4932034;29;20024;-72
2024/02/03 11:22:51;;;;;;;3.78;2.92;;;;;;;;;;4929645;29;20661;-71
2024/02/03 11:25:19;;;;;;;5.75;3.15;;;;;;;;;;4931566;29;20107;-72
2024/02/03 11:27:45;;;;;;;4.35;3.42;;;;;;;;;;4930585;29;20098;-71
2024/02/03 11:30:11;;;;;;;4.47;3.45;;;;;;;;;;4931369;29;20047;-73
2024/02/03 11:32:37;;;;;;;7.90;4.05;;;;;;;;;;4930839;29;20036;-72
2024/02/03 11:35:05;;;;;;;7.95;4.32;;;;;;;;;;4932808;29;20047;-72
2024/02/03 11:37:31;;;;;;;7.18;3.80;;;;;;;;;;4931504;29;20036;-72
2024/02/03 11:40:05;;;;;;;5.13;2.72;;;;;;;;;;4930718;29;20043;-72
2024/02/03 11:42:31;;;;;;;4.18;2.40;;;;;;;;;;4929678;29;20040;-72
2024/02/03 11:45:02;;;;;;;3.20;2.45;;;;;;;;;;4930634;29;20058;-72
2024/02/03 11:47:31;;;;;;;4.57;2.88;;;;;;;;;;4914294;29;20048;-72
2024/02/03 11:49:57;;;;;;;5.43;2.97;;;;;;;;;;4914718;29;20035;-71
2024/02/03 11:52:23;;;;;;;4.53;2.97;;;;;;;;;;4930805;29;20091;-72
2024/02/03 11:54:51;;;;;;;4.05;3.00;;;;;;;;;;4929765;29;20541;-71
2024/02/03 11:57:17;;;;;;;6.88;3.35;;;;;;;;;;4929691;29;20048;-71
2024/02/03 11:59:43;;;;;;;4.85;2.85;;;;;;;;;;4929539;29;20122;-72
2024/02/03 12:02:10;;;;;;;5.63;3.45;;;;;;;;;;4928723;29;20135;-72
2024/02/03 12:04:35;;;;;;;4.97;3.33;;;;;;;;;;4930764;29;20035;-71
2024/02/03 12:07:01;;;;;;;4.25;3.03;;;;;;;;;;4930160;29;20046;-72
2024/02/03 12:09:27;;;;;;;7.68;3.40;;;;;;;;;;4928988;29;20032;-72
2024/02/03 12:11:53;;;;;;;3.40;2.90;;;;;;;;;;4930228;29;20574;-72
2024/02/03 12:14:20;;;;;;;6.88;2.90;;;;;;;;;;4930304;29;20035;-71
2024/02/03 12:16:46;;;;;;;6.53;2.90;;;;;;;;;;4928769;29;20055;-72
2024/02/03 12:19:12;;;;;;;4.38;2.55;;;;;;;;;;4928812;29;20518;-71
2024/02/03 12:21:38;;;;;;;3.22;2.47;;;;;;;;;;4930497;29;20078;-72
2024/02/03 12:24:07;;;;;;;6.38;3.38;;;;;;;;;;4928670;29;20906;-71
2024/02/03 12:26:33;;;;;;;4.93;2.72;;;;;;;;;;4928996;29;20134;-71
2024/02/03 12:28:59;;;;;;;4.20;3.10;;;;;;;;;;4928495;29;20044;-71
2024/02/03 12:31:25;;;;;;;4.97;4.03;;;;;;;;;;4929203;29;20663;-72
2024/02/03 12:33:54;;;;;;;4.50;4.05;;;;;;;;;;4928559;29;20036;-73
2024/02/03 12:36:19;;;;;;;7.30;3.90;;;;;;;;;;4931758;28;20040;-72
2024/02/03 12:38:45;;;;;;;6.25;3.53;;;;;;;;;;4928640;29;20046;-72
2024/02/03 12:41:11;;;;;;;6.10;3.55;;;;;;;;;;4929335;29;20050;-72
2024/02/03 12:43:38;;;;;;;5.03;3.58;;;;;;;;;;4893977;29;20039;-72
2024/02/03 12:46:04;;;;;;;4.70;3.35;;;;;;;;;;4929122;29;20058;-72
2024/02/03 12:48:30;;;;;;;4.63;3.08;;;;;;;;;;4927274;29;20046;-72
2024/02/03 12:50:58;;;;;;;7.30;4.43;;;;;;;;;;4912540;29;20561;-71
2024/02/03 12:53:24;;;;;;;5.60;3.78;;;;;;;;;;4921729;29;20529;-74
2024/02/03 12:55:49;;;;;;;3.10;2.83;;;;;;;;;;4924624;29;20537;-72
2024/02/03 12:58:16;;;;;;;5.00;3.35;;;;;;;;;;4930663;29;20535;-75
2024/02/03 13:00:42;;;;;;;7.13;4.00;;;;;;;;;;4931247;29;20039;-73
2024/02/03 13:03:14;;;;;;;8.00;4.93;;;;;;;;;;4931319;29;20095;-72
2024/02/03 13:05:40;;;;;;;9.30;5.28;;;;;;;;;;4932447;29;20051;-71
2024/02/03 13:08:06;;;;;;;5.40;3.28;;;;;;;;;;4932901;29;20098;-71
2024/02/03 13:10:32;;;;;;;5.47;3.13;;;;;;;;;;4933169;29;20475;-72
2024/02/03 13:12:58;;;;;;;7.57;3.40;;;;;;;;;;4934032;29;20067;-72
2024/02/03 13:15:24;;;;;;;4.30;2.53;;;;;;;;;;4933307;29;20051;-72
2024/02/03 13:17:50;;;;;;;2.35;2.25;;;;;;;;;;4915614;29;20047;-72
2024/02/03 13:20:16;;;;;;;3.75;2.83;;;;;;;;;;4931664;29;20086;-71
2024/02/03 13:22:42;;;;;;;3.58;3.03;;;;;;;;;;4932133;29;20148;-71
2024/02/03 13:25:08;;;;;;;4.88;2.50;;;;;;;;;;4950679;29;20554;-71
2024/02/03 13:27:34;;;;;;;2.70;2.50;;;;;;;;;;4943889;29;20913;-71
2024/02/03 13:30:00;;;;;;;5.05;2.83;;;;;;;;;;4931427;29;20144;-72
2024/02/03 13:32:25;;;;;;;5.53;2.85;;;;;;;;;;4932605;29;20134;-71
2024/02/03 13:34:53;;;;;;;3.40;3.10;;;;;;;;;;4932119;29;20031;-71
2024/02/03 13:37:18;;;;;;;6.10;3.22;;;;;;;;;;4932024;28;20043;-71
2024/02/03 13:39:44;;;;;;;3.60;2.88;;;;;;;;;;4931873;29;20474;-71
2024/02/03 13:42:10;;;;;;;3.58;2.60;;;;;;;;;;4930964;29;20570;-72
2024/02/03 13:44:36;;;;;;;4.82;3.20;;;;;;;;;;4930333;29;20075;-71
2024/02/03 13:47:02;;;;;;;2.63;2.42;;;;;;;;;;4931646;29;20126;-71
2024/02/03 13:49:28;;;;;;;5.97;3.30;;;;;;;;;;4930481;29;20063;-71
2024/02/03 13:51:54;;;;;;;3.45;2.70;;;;;;;;;;4929821;29;20119;-71
2024/02/03 13:54:19;;;;;;;3.78;2.63;;;;;;;;;;4930045;29;20518;-71
2024/02/03 13:56:47;;;;;;;6.85;2.72;;;;;;;;;;4931358;29;20039;-71
2024/02/03 13:59:13;;;;;;;4.18;2.95;;;;;;;;;;4914777;29;20042;-71
2024/02/03 14:01:39;;;;;;;6.82;4.25;;;;;;;;;;4930110;29;20094;-71
2024/02/03 14:04:05;;;;;;;3.92;2.45;;;;;;;;;;4930368;29;20051;-71
2024/02/03 14:06:31;;;;;;;3.78;2.97;;;;;;;;;;4931540;29;20375;-72
2024/02/03 14:08:58;;;;;;;5.22;2.65;;;;;;;;;;4931801;29;20086;-71
2024/02/03 14:11:26;;;;;;;4.35;2.83;;;;;;;;;;4930969;29;20036;-71
2024/02/03 14:13:52;;;;;;;6.03;2.90;;;;;;;;;;4929964;29;20051;-71
2024/02/03 14:16:18;;;;;;;4.75;2.80;;;;;;;;;;4928156;29;20083;-73
2024/02/03 14:18:44;;;;;;;4.43;2.80;;;;;;;;;;4929867;29;20199;-72
2024/02/03 14:21:09;;;;;;;2.92;2.55;;;;;;;;;;4914223;29;20035;-71
2024/02/03 14:23:35;;;;;;;9.25;3.00;;;;;;;;;;4929755;29;20042;-72
2024/02/03 14:26:03;;;;;;;6.25;3.58;;;;;;;;;;4931189;29;20048;-71
2024/02/03 14:28:31;;;;;;;5.03;3.00;;;;;;;;;;4930693;29;20044;-72
2024/02/03 14:30:57;;;;;;;3.65;3.35;;;;;;;;;;4929643;29;20039;-72
2024/02/03 14:33:23;;;;;;;6.18;3.00;;;;;;;;;;4930736;29;20031;-71
2024/02/03 14:35:49;;;;;;;8.48;3.30;;;;;;;;;;4930710;29;20050;-72
2024/02/03 14:38:15;;;;;;;5.75;3.85;;;;;;;;;;4930846;29;20058;-71